This is the latest recevied weather packets stored in our database for station/object WE0DX-1. If no packets are shown the sender has not sent any weather packets the latest 10 day(s).
| Time | Temp. | Humidity | Pressure | Rain* | Wind** | Luminosity | Snow |
|---|---|---|---|---|---|---|---|
| 1777433627 | 10° C | 73% | 1017.6 hPa | 0 mm | - | 0 W/m² | - |
| 1777433323 | 10.56° C | 72% | 1017.8 hPa | 0 mm | - | 0 W/m² | - |
| 1777432410 | 10.56° C | 71% | 1017.1 hPa | 0 mm | - | 0 W/m² | - |
| 1777432106 | 10.56° C | 73% | 1017.4 hPa | 0 mm | - | 0 W/m² | - |
| 1777431801 | 11.11° C | 72% | 1017.2 hPa | 0 mm | - | 0 W/m² | - |
| 1777429375 | 12.22° C | 70% | 1016.5 hPa | 0 mm | - | 0 W/m² | - |
| 1777429070 | 12.22° C | 69% | 1016.1 hPa | 0 mm | - | 0 W/m² | - |
| 1777428463 | 12.78° C | 69% | 1015.7 hPa | 0 mm | - | 0 W/m² | - |
| 1777426034 | 13.89° C | 68% | 1014.6 hPa | 0 mm | - | 0 W/m² | - |
| 1777425729 | 13.89° C | 68% | 1014.6 hPa | 0 mm | - | 0 W/m² | - |
| 1777425424 | 13.89° C | 67% | 1014.4 hPa | 0 mm | - | 0 W/m² | - |
| 1777422992 | 15° C | 65% | 1014 hPa | 0 mm | - | 10 W/m² | - |
| 1777422383 | 15.56° C | 64% | 1014 hPa | 0 mm | - | 13 W/m² | - |
| 1777420253 | 15.56° C | 64% | 1013.4 hPa | 0 mm | - | 38 W/m² | - |
| 1777415712 | 15.56° C | 65% | 1013.4 hPa | 0 mm | - | 79 W/m² | - |
| 1777414498 | 15.56° C | 66% | 1013.3 hPa | 0 mm | - | 120 W/m² | - |
| 1777414197 | 15.56° C | 66% | 1013.2 hPa | 0 mm | - | 115 W/m² | - |
| 1777412072 | 15° C | 70% | 1013.2 hPa | 0 mm | - | 172 W/m² | - |
| 1777410850 | 15° C | 69% | 1013.4 hPa | 0 mm | - | 111 W/m² | - |
| 1777408723 | 13.89° C | 72% | 1014.4 hPa | 0 mm | - | 248 W/m² | - |
| 1777406900 | 13.89° C | 72% | 1014.8 hPa | 0 mm | - | 230 W/m² | - |
| 1777405985 | 13.33° C | 71% | 1014.3 hPa | 0 mm | - | 207 W/m² | - |
| 1777405379 | 13.33° C | 71% | 1014.5 hPa | 0 mm | - | 200 W/m² | - |
| 1777404769 | 13.33° C | 71% | 1014.1 hPa | 0 mm | - | 212 W/m² | - |
| 1777404466 | 13.33° C | 71% | 1014 hPa | 0 mm | - | 310 W/m² | - |
* Rain latest hour (hover to see other rain measurements)
** Current wind speed in m/s (hover to see current wind gust speed)